Honolulu, HI

9:52 AM HST on January 29, 2015 (GMT -1000)
Pacific Heights | Change Station
CLOSE
Current Station
Personal Weather Station
Location: Honolulu, HI
Elevation: 528 ft
Nearby Weather Stations

Elev 528 ft 21.33 °N, 157.84 °W | Updated 13 seconds ago

Mostly Cloudy
Mostly Cloudy
73.2 °F
Feels Like 73 °F
N
12.1
Wind Variable Wind from SW
Gusts 16.0 mph

Today
High -- | Low -- °F
--% Chance of Precip.
Yesterday
High -- | Low -- °F
Precip. -- in
7:09 AM 6:19 PM
Waxing Gibbous, 76% visible
Pressure 29.94 in
Visibility 8.0 miles
Clouds Scattered Clouds 2600 ft
Mostly Cloudy 4100 ft
Mostly Cloudy 4900 ft
Heat Index 73 °F
Dew Point 67 °F
Humidity 81%
Rainfall 0.00 in
Snow Depth Not available.
UV 1 out of 12
Pollen Not available.
Air Quality Not available.
Flu Activity Not available.
METAR PHNL 291853Z COR 20010KT 8SM SCT026 BKN041 BKN049 25/19 A2994 RMK AO2 SLP137 SHRA DSNT NW T02500194

More Conditions Fewer Conditions

Pressure 29.94 in
Visibility 8.0 miles
Clouds Scattered Clouds 2600 ft
Mostly Cloudy 4100 ft
Mostly Cloudy 4900 ft
Heat Index 73 °F
Dew Point 67 °F
Humidity 81%
Rainfall 0.00 in
Snow Depth Not available.
UV 1 out of 12
Pollen Not available.
Air Quality Not available.
Flu Activity Not available.
METAR PHNL 291853Z COR 20010KT 8SM SCT026 BKN041 BKN049 25/19 A2994 RMK AO2 SLP137 SHRA DSNT NW T02500194

More Conditions Fewer Conditions

10-Day Weather Forecast

Almanac

Astronomy

Jan. 29, 2015 Rise Set
Actual Time
Civil Twilight
Nautical Twilight
Astronomical Twilight
Moon
Length of Visible Light
Length of Day
Tomorrow will be .
, % of the Moon is Illuminated

Today's Extremes

State Highs State Lows

Community

WunderPhotos

Upload Photos

1,791,568 photos uploaded!

WunderBlogs® & News

Nearby

Air Quality

  Air Quality AQ Index Pollutant
Not available.

Snow Depth

Station Depth Elevation

Earthquake Activity

City Distance Mag. Time & Date
Minimum magnitude displayed is 2.5.

Coastal Water Temperatures

Place Temperature

Nearby Weather Stations